sensor_id;sensor_type;location;lat;lon;timestamp;P1;durP1;ratioP1;P2;durP2;ratioP2
82722;SDS011;72450;42.008;21.356;2023-09-12T00:00:22;15.70;;;8.05;;
82722;SDS011;72450;42.008;21.356;2023-09-12T00:02:48;19.67;;;8.45;;
82722;SDS011;72450;42.008;21.356;2023-09-12T00:05:14;17.58;;;8.65;;
82722;SDS011;72450;42.008;21.356;2023-09-12T00:07:40;17.60;;;8.88;;
82722;SDS011;72450;42.008;21.356;2023-09-12T00:10:06;16.02;;;9.32;;
82722;SDS011;72450;42.008;21.356;2023-09-12T00:12:32;23.20;;;9.48;;
82722;SDS011;72450;42.008;21.356;2023-09-12T00:14:58;23.17;;;8.60;;
82722;SDS011;72450;42.008;21.356;2023-09-12T00:17:24;18.90;;;9.43;;
82722;SDS011;72450;42.008;21.356;2023-09-12T00:19:52;15.63;;;8.50;;
82722;SDS011;72450;42.008;21.356;2023-09-12T00:22:18;15.95;;;8.40;;
82722;SDS011;72450;42.008;21.356;2023-09-12T00:24:44;16.60;;;8.77;;
82722;SDS011;72450;42.008;21.356;2023-09-12T00:27:10;18.27;;;9.05;;
82722;SDS011;72450;42.008;21.356;2023-09-12T00:29:36;13.75;;;8.13;;
82722;SDS011;72450;42.008;21.356;2023-09-12T00:32:02;18.88;;;8.02;;
82722;SDS011;72450;42.008;21.356;2023-09-12T00:34:28;16.75;;;8.15;;
82722;SDS011;72450;42.008;21.356;2023-09-12T00:36:54;15.02;;;7.82;;
82722;SDS011;72450;42.008;21.356;2023-09-12T00:39:20;17.02;;;7.78;;
82722;SDS011;72450;42.008;21.356;2023-09-12T00:41:46;11.48;;;6.70;;
82722;SDS011;72450;42.008;21.356;2023-09-12T00:44:12;13.45;;;6.50;;
82722;SDS011;72450;42.008;21.356;2023-09-12T00:46:38;19.80;;;6.97;;
82722;SDS011;72450;42.008;21.356;2023-09-12T00:49:05;13.88;;;7.20;;
82722;SDS011;72450;42.008;21.356;2023-09-12T00:51:32;14.02;;;6.65;;
82722;SDS011;72450;42.008;21.356;2023-09-12T00:53:58;16.17;;;7.20;;
82722;SDS011;72450;42.008;21.356;2023-09-12T00:56:25;12.95;;;7.40;;
82722;SDS011;72450;42.008;21.356;2023-09-12T00:58:51;16.58;;;7.85;;
82722;SDS011;72450;42.008;21.356;2023-09-12T01:01:20;15.30;;;7.65;;
82722;SDS011;72450;42.008;21.356;2023-09-12T01:03:47;10.88;;;6.15;;
82722;SDS011;72450;42.008;21.356;2023-09-12T01:06:13;14.68;;;6.53;;
82722;SDS011;72450;42.008;21.356;2023-09-12T01:08:40;15.20;;;6.88;;
82722;SDS011;72450;42.008;21.356;2023-09-12T01:11:06;13.55;;;6.72;;
82722;SDS011;72450;42.008;21.356;2023-09-12T01:13:32;13.20;;;7.15;;
82722;SDS011;72450;42.008;21.356;2023-09-12T01:15:58;16.45;;;6.50;;
82722;SDS011;72450;42.008;21.356;2023-09-12T01:18:24;12.82;;;6.15;;
82722;SDS011;72450;42.008;21.356;2023-09-12T01:20:58;14.07;;;6.88;;
82722;SDS011;72450;42.008;21.356;2023-09-12T01:28:49;16.35;;;7.40;;
82722;SDS011;72450;42.008;21.356;2023-09-12T01:31:17;23.73;;;9.32;;
82722;SDS011;72450;42.008;21.356;2023-09-12T01:33:43;23.58;;;9.63;;
82722;SDS011;72450;42.008;21.356;2023-09-12T01:36:10;26.25;;;10.65;;
82722;SDS011;72450;42.008;21.356;2023-09-12T01:38:36;25.15;;;10.95;;
82722;SDS011;72450;42.008;21.356;2023-09-12T01:41:02;17.90;;;9.80;;
82722;SDS011;72450;42.008;21.356;2023-09-12T01:43:28;23.38;;;10.75;;
82722;SDS011;72450;42.008;21.356;2023-09-12T01:45:57;22.92;;;9.98;;
82722;SDS011;72450;42.008;21.356;2023-09-12T01:48:25;18.83;;;9.40;;
82722;SDS011;72450;42.008;21.356;2023-09-12T01:50:54;22.85;;;10.25;;
82722;SDS011;72450;42.008;21.356;2023-09-12T01:53:20;25.13;;;11.32;;
82722;SDS011;72450;42.008;21.356;2023-09-12T01:55:46;25.95;;;11.50;;
82722;SDS011;72450;42.008;21.356;2023-09-12T01:58:13;23.10;;;11.15;;
82722;SDS011;72450;42.008;21.356;2023-09-12T02:00:39;21.08;;;9.75;;
82722;SDS011;72450;42.008;21.356;2023-09-12T02:03:05;24.42;;;11.02;;
82722;SDS011;72450;42.008;21.356;2023-09-12T02:05:32;27.05;;;10.77;;
82722;SDS011;72450;42.008;21.356;2023-09-12T02:07:58;21.88;;;9.70;;
82722;SDS011;72450;42.008;21.356;2023-09-12T02:10:27;25.35;;;10.18;;
82722;SDS011;72450;42.008;21.356;2023-09-12T02:12:53;23.67;;;10.93;;
82722;SDS011;72450;42.008;21.356;2023-09-12T02:15:19;25.02;;;10.45;;
82722;SDS011;72450;42.008;21.356;2023-09-12T02:17:45;22.88;;;10.93;;
82722;SDS011;72450;42.008;21.356;2023-09-12T02:20:11;25.10;;;11.55;;
82722;SDS011;72450;42.008;21.356;2023-09-12T02:22:37;24.17;;;12.15;;
82722;SDS011;72450;42.008;21.356;2023-09-12T02:25:04;26.50;;;10.90;;
82722;SDS011;72450;42.008;21.356;2023-09-12T02:27:30;22.80;;;11.32;;
82722;SDS011;72450;42.008;21.356;2023-09-12T02:29:56;23.85;;;9.45;;
82722;SDS011;72450;42.008;21.356;2023-09-12T02:32:22;21.30;;;10.02;;
82722;SDS011;72450;42.008;21.356;2023-09-12T02:34:48;19.85;;;10.00;;
82722;SDS011;72450;42.008;21.356;2023-09-12T02:37:14;26.13;;;10.38;;
82722;SDS011;72450;42.008;21.356;2023-09-12T02:39:41;20.52;;;10.90;;
82722;SDS011;72450;42.008;21.356;2023-09-12T02:42:07;20.20;;;11.20;;
82722;SDS011;72450;42.008;21.356;2023-09-12T02:44:33;23.92;;;12.60;;
82722;SDS011;72450;42.008;21.356;2023-09-12T02:46:59;22.98;;;11.88;;
82722;SDS011;72450;42.008;21.356;2023-09-12T02:49:25;23.08;;;11.15;;
82722;SDS011;72450;42.008;21.356;2023-09-12T02:51:51;20.70;;;11.20;;
82722;SDS011;72450;42.008;21.356;2023-09-12T02:54:17;27.58;;;10.68;;
82722;SDS011;72450;42.008;21.356;2023-09-12T02:56:43;21.10;;;9.93;;
82722;SDS011;72450;42.008;21.356;2023-09-12T02:59:09;21.65;;;10.50;;
82722;SDS011;72450;42.008;21.356;2023-09-12T03:01:35;20.98;;;10.52;;
82722;SDS011;72450;42.008;21.356;2023-09-12T03:04:01;28.52;;;10.73;;
82722;SDS011;72450;42.008;21.356;2023-09-12T03:06:28;25.65;;;10.50;;
82722;SDS011;72450;42.008;21.356;2023-09-12T03:08:55;20.95;;;10.45;;
82722;SDS011;72450;42.008;21.356;2023-09-12T03:11:21;20.33;;;9.35;;
82722;SDS011;72450;42.008;21.356;2023-09-12T03:13:47;22.15;;;9.00;;
82722;SDS011;72450;42.008;21.356;2023-09-12T03:16:14;16.73;;;8.93;;
82722;SDS011;72450;42.008;21.356;2023-09-12T03:18:40;16.27;;;8.30;;
82722;SDS011;72450;42.008;21.356;2023-09-12T03:21:06;13.63;;;8.07;;
82722;SDS011;72450;42.008;21.356;2023-09-12T03:23:32;12.43;;;7.18;;
82722;SDS011;72450;42.008;21.356;2023-09-12T03:26:02;11.00;;;6.40;;
82722;SDS011;72450;42.008;21.356;2023-09-12T03:28:28;15.18;;;6.70;;
82722;SDS011;72450;42.008;21.356;2023-09-12T03:31:03;14.85;;;7.07;;
82722;SDS011;72450;42.008;21.356;2023-09-12T03:33:29;10.98;;;5.72;;
82722;SDS011;72450;42.008;21.356;2023-09-12T03:35:55;13.13;;;6.90;;
82722;SDS011;72450;42.008;21.356;2023-09-12T03:38:21;13.02;;;6.82;;
82722;SDS011;72450;42.008;21.356;2023-09-12T03:40:47;11.48;;;5.78;;
82722;SDS011;72450;42.008;21.356;2023-09-12T03:43:13;11.77;;;6.05;;
82722;SDS011;72450;42.008;21.356;2023-09-12T03:45:39;14.85;;;6.78;;
82722;SDS011;72450;42.008;21.356;2023-09-12T03:48:05;16.60;;;7.60;;
82722;SDS011;72450;42.008;21.356;2023-09-12T03:50:31;14.80;;;8.05;;
82722;SDS011;72450;42.008;21.356;2023-09-12T03:52:57;13.73;;;6.85;;
82722;SDS011;72450;42.008;21.356;2023-09-12T03:55:24;13.65;;;6.25;;
82722;SDS011;72450;42.008;21.356;2023-09-12T03:57:50;11.82;;;5.57;;
82722;SDS011;72450;42.008;21.356;2023-09-12T04:00:16;14.55;;;7.22;;
82722;SDS011;72450;42.008;21.356;2023-09-12T04:02:42;18.10;;;6.60;;
82722;SDS011;72450;42.008;21.356;2023-09-12T04:05:08;14.13;;;6.38;;
82722;SDS011;72450;42.008;21.356;2023-09-12T04:07:34;11.93;;;6.40;;
82722;SDS011;72450;42.008;21.356;2023-09-12T04:10:01;14.43;;;7.03;;
82722;SDS011;72450;42.008;21.356;2023-09-12T04:12:27;14.23;;;7.43;;
82722;SDS011;72450;42.008;21.356;2023-09-12T04:14:53;14.85;;;7.15;;
82722;SDS011;72450;42.008;21.356;2023-09-12T04:17:22;17.67;;;8.40;;
82722;SDS011;72450;42.008;21.356;2023-09-12T04:19:48;17.02;;;8.13;;
82722;SDS011;72450;42.008;21.356;2023-09-12T04:22:14;18.55;;;8.60;;
82722;SDS011;72450;42.008;21.356;2023-09-12T04:24:41;20.63;;;8.88;;
82722;SDS011;72450;42.008;21.356;2023-09-12T04:27:07;13.70;;;7.97;;
82722;SDS011;72450;42.008;21.356;2023-09-12T04:29:33;16.08;;;8.35;;
82722;SDS011;72450;42.008;21.356;2023-09-12T04:32:01;14.38;;;7.65;;
82722;SDS011;72450;42.008;21.356;2023-09-12T04:34:28;16.75;;;7.85;;
82722;SDS011;72450;42.008;21.356;2023-09-12T04:36:54;15.80;;;7.40;;
82722;SDS011;72450;42.008;21.356;2023-09-12T04:39:21;10.05;;;6.43;;
82722;SDS011;72450;42.008;21.356;2023-09-12T04:41:47;13.38;;;6.25;;
82722;SDS011;72450;42.008;21.356;2023-09-12T04:44:13;10.73;;;7.03;;
82722;SDS011;72450;42.008;21.356;2023-09-12T04:46:39;12.93;;;6.28;;
82722;SDS011;72450;42.008;21.356;2023-09-12T04:49:05;11.50;;;6.88;;
82722;SDS011;72450;42.008;21.356;2023-09-12T04:51:31;10.93;;;5.30;;
82722;SDS011;72450;42.008;21.356;2023-09-12T04:53:57;11.23;;;5.72;;
82722;SDS011;72450;42.008;21.356;2023-09-12T04:56:23;12.18;;;5.70;;
82722;SDS011;72450;42.008;21.356;2023-09-12T04:58:49;9.77;;;6.40;;
82722;SDS011;72450;42.008;21.356;2023-09-12T05:01:15;16.75;;;6.80;;
82722;SDS011;72450;42.008;21.356;2023-09-12T05:03:42;15.13;;;6.57;;
82722;SDS011;72450;42.008;21.356;2023-09-12T05:06:09;13.50;;;6.97;;
82722;SDS011;72450;42.008;21.356;2023-09-12T05:08:35;16.23;;;7.50;;
82722;SDS011;72450;42.008;21.356;2023-09-12T05:11:01;18.27;;;7.68;;
82722;SDS011;72450;42.008;21.356;2023-09-12T05:13:28;14.27;;;7.68;;
82722;SDS011;72450;42.008;21.356;2023-09-12T05:15:54;12.90;;;6.80;;
82722;SDS011;72450;42.008;21.356;2023-09-12T05:20:47;12.35;;;5.97;;
82722;SDS011;72450;42.008;21.356;2023-09-12T05:23:13;10.65;;;5.93;;
82722;SDS011;72450;42.008;21.356;2023-09-12T05:25:39;10.80;;;5.55;;
82722;SDS011;72450;42.008;21.356;2023-09-12T05:28:05;13.63;;;6.30;;
82722;SDS011;72450;42.008;21.356;2023-09-12T05:30:32;11.70;;;6.03;;
82722;SDS011;72450;42.008;21.356;2023-09-12T05:32:58;11.57;;;6.43;;
82722;SDS011;72450;42.008;21.356;2023-09-12T05:35:24;12.55;;;6.05;;
82722;SDS011;72450;42.008;21.356;2023-09-12T05:37:50;11.68;;;5.97;;
82722;SDS011;72450;42.008;21.356;2023-09-12T05:40:17;10.55;;;5.55;;
82722;SDS011;72450;42.008;21.356;2023-09-12T05:42:43;15.32;;;6.00;;
82722;SDS011;72450;42.008;21.356;2023-09-12T05:45:09;12.13;;;6.40;;
82722;SDS011;72450;42.008;21.356;2023-09-12T05:47:35;15.25;;;6.75;;
82722;SDS011;72450;42.008;21.356;2023-09-12T05:50:01;10.68;;;5.65;;
82722;SDS011;72450;42.008;21.356;2023-09-12T05:52:31;11.38;;;6.35;;
82722;SDS011;72450;42.008;21.356;2023-09-12T05:54:57;10.45;;;5.50;;
82722;SDS011;72450;42.008;21.356;2023-09-12T05:57:23;11.07;;;5.70;;
82722;SDS011;72450;42.008;21.356;2023-09-12T05:59:49;11.73;;;6.03;;
82722;SDS011;72450;42.008;21.356;2023-09-12T06:02:15;12.93;;;6.28;;
82722;SDS011;72450;42.008;21.356;2023-09-12T06:04:42;13.27;;;6.07;;
82722;SDS011;72450;42.008;21.356;2023-09-12T06:07:08;12.90;;;6.60;;
82722;SDS011;72450;42.008;21.356;2023-09-12T06:09:35;12.85;;;6.00;;
82722;SDS011;72450;42.008;21.356;2023-09-12T06:12:01;16.83;;;7.55;;
82722;SDS011;72450;42.008;21.356;2023-09-12T06:14:27;14.05;;;6.28;;
82722;SDS011;72450;42.008;21.356;2023-09-12T06:16:53;12.93;;;6.63;;
82722;SDS011;72450;42.008;21.356;2023-09-12T06:19:19;15.75;;;6.55;;
82722;SDS011;72450;42.008;21.356;2023-09-12T06:21:45;13.18;;;7.05;;
82722;SDS011;72450;42.008;21.356;2023-09-12T06:24:13;12.88;;;6.90;;
82722;SDS011;72450;42.008;21.356;2023-09-12T06:26:39;10.73;;;5.95;;
82722;SDS011;72450;42.008;21.356;2023-09-12T06:29:05;13.32;;;6.72;;
82722;SDS011;72450;42.008;21.356;2023-09-12T06:31:31;11.88;;;6.30;;
82722;SDS011;72450;42.008;21.356;2023-09-12T06:33:58;12.27;;;6.43;;
82722;SDS011;72450;42.008;21.356;2023-09-12T06:36:25;16.73;;;6.55;;
82722;SDS011;72450;42.008;21.356;2023-09-12T06:38:52;12.73;;;6.18;;
82722;SDS011;72450;42.008;21.356;2023-09-12T06:41:19;10.90;;;5.82;;
82722;SDS011;72450;42.008;21.356;2023-09-12T06:43:45;13.32;;;5.90;;
82722;SDS011;72450;42.008;21.356;2023-09-12T06:46:11;14.98;;;5.68;;
82722;SDS011;72450;42.008;21.356;2023-09-12T06:48:37;10.93;;;5.88;;
82722;SDS011;72450;42.008;21.356;2023-09-12T06:51:08;9.52;;;5.47;;
82722;SDS011;72450;42.008;21.356;2023-09-12T06:53:34;16.70;;;6.05;;
82722;SDS011;72450;42.008;21.356;2023-09-12T06:56:02;9.23;;;5.55;;
82722;SDS011;72450;42.008;21.356;2023-09-12T06:58:28;10.68;;;6.28;;
82722;SDS011;72450;42.008;21.356;2023-09-12T07:00:54;12.55;;;5.70;;
82722;SDS011;72450;42.008;21.356;2023-09-12T07:03:20;10.25;;;6.30;;
82722;SDS011;72450;42.008;21.356;2023-09-12T07:05:46;14.38;;;6.75;;
82722;SDS011;72450;42.008;21.356;2023-09-12T07:08:12;19.70;;;7.47;;
82722;SDS011;72450;42.008;21.356;2023-09-12T07:10:43;10.32;;;6.30;;
82722;SDS011;72450;42.008;21.356;2023-09-12T07:13:10;9.20;;;6.00;;
82722;SDS011;72450;42.008;21.356;2023-09-12T07:15:36;12.38;;;6.95;;
82722;SDS011;72450;42.008;21.356;2023-09-12T07:18:02;12.07;;;6.38;;
82722;SDS011;72450;42.008;21.356;2023-09-12T07:20:30;14.55;;;6.80;;
82722;SDS011;72450;42.008;21.356;2023-09-12T07:22:56;13.00;;;7.47;;
82722;SDS011;72450;42.008;21.356;2023-09-12T07:25:22;14.48;;;7.25;;
82722;SDS011;72450;42.008;21.356;2023-09-12T07:27:49;13.20;;;6.85;;
82722;SDS011;72450;42.008;21.356;2023-09-12T07:30:15;16.67;;;7.57;;
82722;SDS011;72450;42.008;21.356;2023-09-12T07:32:41;14.65;;;7.85;;
82722;SDS011;72450;42.008;21.356;2023-09-12T07:35:07;15.05;;;7.90;;
82722;SDS011;72450;42.008;21.356;2023-09-12T07:37:33;17.85;;;9.23;;
82722;SDS011;72450;42.008;21.356;2023-09-12T07:39:59;18.08;;;9.27;;
82722;SDS011;72450;42.008;21.356;2023-09-12T07:42:26;12.70;;;8.35;;
82722;SDS011;72450;42.008;21.356;2023-09-12T07:44:52;24.38;;;9.35;;
82722;SDS011;72450;42.008;21.356;2023-09-12T07:47:18;20.33;;;9.07;;
82722;SDS011;72450;42.008;21.356;2023-09-12T07:49:45;14.93;;;9.07;;
82722;SDS011;72450;42.008;21.356;2023-09-12T07:52:11;22.13;;;8.48;;
82722;SDS011;72450;42.008;21.356;2023-09-12T07:54:37;19.30;;;9.57;;
82722;SDS011;72450;42.008;21.356;2023-09-12T07:57:03;19.77;;;8.80;;
82722;SDS011;72450;42.008;21.356;2023-09-12T07:59:29;16.45;;;8.65;;
82722;SDS011;72450;42.008;21.356;2023-09-12T08:01:56;15.07;;;7.28;;
82722;SDS011;72450;42.008;21.356;2023-09-12T08:04:22;17.00;;;8.57;;
82722;SDS011;72450;42.008;21.356;2023-09-12T08:06:48;18.23;;;7.70;;
82722;SDS011;72450;42.008;21.356;2023-09-12T08:09:14;11.77;;;7.28;;
82722;SDS011;72450;42.008;21.356;2023-09-12T08:11:40;15.27;;;6.72;;
82722;SDS011;72450;42.008;21.356;2023-09-12T08:14:06;14.52;;;6.20;;
82722;SDS011;72450;42.008;21.356;2023-09-12T08:16:32;15.07;;;7.22;;
82722;SDS011;72450;42.008;21.356;2023-09-12T08:18:58;14.63;;;7.65;;
82722;SDS011;72450;42.008;21.356;2023-09-12T08:21:24;10.05;;;7.13;;
82722;SDS011;72450;42.008;21.356;2023-09-12T08:23:50;10.48;;;5.90;;
82722;SDS011;72450;42.008;21.356;2023-09-12T08:26:16;9.75;;;5.95;;
82722;SDS011;72450;42.008;21.356;2023-09-12T08:28:42;9.55;;;6.28;;
82722;SDS011;72450;42.008;21.356;2023-09-12T08:31:08;12.65;;;5.95;;
82722;SDS011;72450;42.008;21.356;2023-09-12T08:33:34;15.43;;;6.25;;
82722;SDS011;72450;42.008;21.356;2023-09-12T08:36:00;10.38;;;5.45;;
82722;SDS011;72450;42.008;21.356;2023-09-12T08:38:27;10.55;;;5.28;;
82722;SDS011;72450;42.008;21.356;2023-09-12T08:40:53;9.45;;;5.50;;
82722;SDS011;72450;42.008;21.356;2023-09-12T08:43:20;9.50;;;5.22;;
82722;SDS011;72450;42.008;21.356;2023-09-12T08:45:46;7.40;;;4.88;;
82722;SDS011;72450;42.008;21.356;2023-09-12T08:48:12;14.00;;;5.70;;
82722;SDS011;72450;42.008;21.356;2023-09-12T08:50:39;10.02;;;4.90;;
82722;SDS011;72450;42.008;21.356;2023-09-12T08:53:06;10.48;;;5.32;;
82722;SDS011;72450;42.008;21.356;2023-09-12T08:55:32;8.40;;;4.47;;
82722;SDS011;72450;42.008;21.356;2023-09-12T08:58:00;7.68;;;4.57;;
82722;SDS011;72450;42.008;21.356;2023-09-12T09:00:27;13.07;;;5.05;;
82722;SDS011;72450;42.008;21.356;2023-09-12T09:02:54;9.65;;;4.85;;
82722;SDS011;72450;42.008;21.356;2023-09-12T09:05:20;10.25;;;4.80;;
82722;SDS011;72450;42.008;21.356;2023-09-12T09:07:48;11.80;;;5.00;;
82722;SDS011;72450;42.008;21.356;2023-09-12T09:10:15;13.25;;;4.75;;
82722;SDS011;72450;42.008;21.356;2023-09-12T09:12:42;11.00;;;5.32;;
82722;SDS011;72450;42.008;21.356;2023-09-12T09:17:51;7.63;;;4.80;;
82722;SDS011;72450;42.008;21.356;2023-09-12T09:20:27;9.13;;;4.88;;
82722;SDS011;72450;42.008;21.356;2023-09-12T09:22:57;11.00;;;5.05;;
82722;SDS011;72450;42.008;21.356;2023-09-12T09:25:24;7.30;;;4.00;;
82722;SDS011;72450;42.008;21.356;2023-09-12T09:27:50;9.77;;;4.80;;
82722;SDS011;72450;42.008;21.356;2023-09-12T09:30:16;9.48;;;4.43;;
82722;SDS011;72450;42.008;21.356;2023-09-12T09:32:43;7.93;;;4.10;;
82722;SDS011;72450;42.008;21.356;2023-09-12T09:35:10;10.43;;;4.68;;
82722;SDS011;72450;42.008;21.356;2023-09-12T09:37:37;8.75;;;4.60;;
82722;SDS011;72450;42.008;21.356;2023-09-12T09:40:07;8.43;;;4.13;;
82722;SDS011;72450;42.008;21.356;2023-09-12T09:42:35;9.82;;;3.72;;
82722;SDS011;72450;42.008;21.356;2023-09-12T09:45:01;7.72;;;4.15;;
82722;SDS011;72450;42.008;21.356;2023-09-12T09:47:27;6.95;;;4.63;;
82722;SDS011;72450;42.008;21.356;2023-09-12T09:49:53;9.40;;;4.28;;
82722;SDS011;72450;42.008;21.356;2023-09-12T09:52:27;13.05;;;5.32;;
82722;SDS011;72450;42.008;21.356;2023-09-12T09:54:53;9.68;;;4.18;;
82722;SDS011;72450;42.008;21.356;2023-09-12T09:57:19;9.00;;;5.30;;
82722;SDS011;72450;42.008;21.356;2023-09-12T09:59:48;7.68;;;4.10;;
82722;SDS011;72450;42.008;21.356;2023-09-12T10:02:17;6.97;;;4.25;;
82722;SDS011;72450;42.008;21.356;2023-09-12T10:04:46;8.70;;;4.25;;
82722;SDS011;72450;42.008;21.356;2023-09-12T10:07:13;10.73;;;4.32;;
82722;SDS011;72450;42.008;21.356;2023-09-12T10:09:39;6.75;;;4.32;;
82722;SDS011;72450;42.008;21.356;2023-09-12T10:12:07;11.52;;;4.45;;
82722;SDS011;72450;42.008;21.356;2023-09-12T10:14:33;5.93;;;4.22;;
82722;SDS011;72450;42.008;21.356;2023-09-12T10:17:01;6.72;;;4.43;;
82722;SDS011;72450;42.008;21.356;2023-09-12T10:19:36;6.97;;;4.68;;
82722;SDS011;72450;42.008;21.356;2023-09-12T10:24:30;6.78;;;4.22;;
82722;SDS011;72450;42.008;21.356;2023-09-12T10:26:56;11.15;;;4.50;;
82722;SDS011;72450;42.008;21.356;2023-09-12T10:29:23;8.07;;;4.35;;
82722;SDS011;72450;42.008;21.356;2023-09-12T10:31:49;8.70;;;4.75;;
82722;SDS011;72450;42.008;21.356;2023-09-12T10:34:15;9.52;;;4.57;;
82722;SDS011;72450;42.008;21.356;2023-09-12T10:36:45;8.02;;;4.68;;
82722;SDS011;72450;42.008;21.356;2023-09-12T10:39:12;10.00;;;4.40;;
82722;SDS011;72450;42.008;21.356;2023-09-12T10:41:39;8.18;;;4.80;;
82722;SDS011;72450;42.008;21.356;2023-09-12T10:44:14;6.70;;;3.95;;
82722;SDS011;72450;42.008;21.356;2023-09-12T10:46:40;8.95;;;4.80;;
82722;SDS011;72450;42.008;21.356;2023-09-12T10:49:10;6.45;;;4.43;;
82722;SDS011;72450;42.008;21.356;2023-09-12T10:51:40;7.97;;;4.43;;
82722;SDS011;72450;42.008;21.356;2023-09-12T10:54:07;10.70;;;4.60;;
82722;SDS011;72450;42.008;21.356;2023-09-12T10:56:33;7.18;;;4.25;;
82722;SDS011;72450;42.008;21.356;2023-09-12T11:01:34;8.88;;;4.20;;
82722;SDS011;72450;42.008;21.356;2023-09-12T11:06:52;11.48;;;4.55;;
82722;SDS011;72450;42.008;21.356;2023-09-12T11:11:45;10.85;;;4.97;;
82722;SDS011;72450;42.008;21.356;2023-09-12T11:14:12;9.60;;;5.05;;
82722;SDS011;72450;42.008;21.356;2023-09-12T11:16:38;8.32;;;4.18;;
82722;SDS011;72450;42.008;21.356;2023-09-12T11:21:50;7.35;;;4.03;;
82722;SDS011;72450;42.008;21.356;2023-09-12T11:24:18;9.85;;;5.00;;
82722;SDS011;72450;42.008;21.356;2023-09-12T11:26:57;8.90;;;4.55;;
82722;SDS011;72450;42.008;21.356;2023-09-12T11:29:33;8.82;;;4.53;;
82722;SDS011;72450;42.008;21.356;2023-09-12T11:32:00;8.50;;;4.65;;
82722;SDS011;72450;42.008;21.356;2023-09-12T11:34:29;12.68;;;4.97;;
82722;SDS011;72450;42.008;21.356;2023-09-12T11:36:57;10.25;;;4.53;;
82722;SDS011;72450;42.008;21.356;2023-09-12T11:42:04;7.63;;;5.15;;
82722;SDS011;72450;42.008;21.356;2023-09-12T11:44:33;10.85;;;5.13;;
82722;SDS011;72450;42.008;21.356;2023-09-12T11:47:00;10.40;;;4.82;;
82722;SDS011;72450;42.008;21.356;2023-09-12T11:49:37;7.07;;;4.68;;
82722;SDS011;72450;42.008;21.356;2023-09-12T11:52:07;10.20;;;4.95;;
82722;SDS011;72450;42.008;21.356;2023-09-12T11:54:33;8.80;;;4.22;;
82722;SDS011;72450;42.008;21.356;2023-09-12T11:59:39;12.38;;;4.32;;
82722;SDS011;72450;42.008;21.356;2023-09-12T12:02:08;7.22;;;3.90;;
82722;SDS011;72450;42.008;21.356;2023-09-12T12:07:10;6.45;;;4.05;;
82722;SDS011;72450;42.008;21.356;2023-09-12T12:09:37;12.32;;;4.80;;
82722;SDS011;72450;42.008;21.356;2023-09-12T12:12:03;8.85;;;4.20;;
82722;SDS011;72450;42.008;21.356;2023-09-12T12:14:30;8.13;;;4.57;;
82722;SDS011;72450;42.008;21.356;2023-09-12T12:17:05;10.90;;;4.35;;
82722;SDS011;72450;42.008;21.356;2023-09-12T12:19:31;8.18;;;4.20;;
82722;SDS011;72450;42.008;21.356;2023-09-12T12:21:57;8.00;;;3.95;;
82722;SDS011;72450;42.008;21.356;2023-09-12T12:24:23;7.45;;;4.35;;
82722;SDS011;72450;42.008;21.356;2023-09-12T12:26:49;7.90;;;4.07;;
82722;SDS011;72450;42.008;21.356;2023-09-12T12:29:18;7.03;;;4.72;;
82722;SDS011;72450;42.008;21.356;2023-09-12T12:31:44;9.02;;;3.92;;
82722;SDS011;72450;42.008;21.356;2023-09-12T12:34:10;9.73;;;3.97;;
82722;SDS011;72450;42.008;21.356;2023-09-12T12:36:45;9.75;;;4.13;;
82722;SDS011;72450;42.008;21.356;2023-09-12T12:39:11;8.80;;;4.10;;
82722;SDS011;72450;42.008;21.356;2023-09-12T12:41:37;8.20;;;3.45;;
82722;SDS011;72450;42.008;21.356;2023-09-12T12:44:03;7.35;;;4.22;;
82722;SDS011;72450;42.008;21.356;2023-09-12T12:46:30;10.98;;;3.67;;
82722;SDS011;72450;42.008;21.356;2023-09-12T12:48:56;5.82;;;3.60;;
82722;SDS011;72450;42.008;21.356;2023-09-12T12:51:23;8.68;;;3.67;;
82722;SDS011;72450;42.008;21.356;2023-09-12T12:53:53;9.75;;;3.67;;
82722;SDS011;72450;42.008;21.356;2023-09-12T12:56:20;7.03;;;3.70;;
82722;SDS011;72450;42.008;21.356;2023-09-12T12:58:59;10.20;;;3.75;;
82722;SDS011;72450;42.008;21.356;2023-09-12T13:01:30;9.10;;;3.53;;
82722;SDS011;72450;42.008;21.356;2023-09-12T13:03:56;7.25;;;3.55;;
82722;SDS011;72450;42.008;21.356;2023-09-12T13:06:22;10.45;;;4.28;;
82722;SDS011;72450;42.008;21.356;2023-09-12T13:08:49;8.27;;;3.55;;
82722;SDS011;72450;42.008;21.356;2023-09-12T13:11:15;5.75;;;3.50;;
82722;SDS011;72450;42.008;21.356;2023-09-12T13:13:42;8.30;;;3.92;;
82722;SDS011;72450;42.008;21.356;2023-09-12T13:16:09;8.15;;;3.70;;
82722;SDS011;72450;42.008;21.356;2023-09-12T13:18:36;9.32;;;3.90;;
82722;SDS011;72450;42.008;21.356;2023-09-12T13:21:02;5.93;;;3.38;;
82722;SDS011;72450;42.008;21.356;2023-09-12T13:23:29;11.45;;;4.20;;
82722;SDS011;72450;42.008;21.356;2023-09-12T13:25:55;7.35;;;3.33;;
82722;SDS011;72450;42.008;21.356;2023-09-12T13:28:22;6.95;;;3.45;;
82722;SDS011;72450;42.008;21.356;2023-09-12T13:30:51;7.95;;;4.07;;
82722;SDS011;72450;42.008;21.356;2023-09-12T13:33:17;7.28;;;3.75;;
82722;SDS011;72450;42.008;21.356;2023-09-12T13:35:43;7.70;;;3.85;;
82722;SDS011;72450;42.008;21.356;2023-09-12T13:38:09;9.68;;;3.35;;
82722;SDS011;72450;42.008;21.356;2023-09-12T13:40:38;10.55;;;3.60;;
82722;SDS011;72450;42.008;21.356;2023-09-12T13:43:05;12.43;;;3.97;;
82722;SDS011;72450;42.008;21.356;2023-09-12T13:45:31;8.93;;;3.95;;
82722;SDS011;72450;42.008;21.356;2023-09-12T13:47:58;8.52;;;4.20;;
82722;SDS011;72450;42.008;21.356;2023-09-12T13:50:25;7.00;;;3.67;;
82722;SDS011;72450;42.008;21.356;2023-09-12T13:52:53;6.32;;;3.83;;
82722;SDS011;72450;42.008;21.356;2023-09-12T13:55:20;6.35;;;3.42;;
82722;SDS011;72450;42.008;21.356;2023-09-12T13:57:46;8.02;;;3.50;;
82722;SDS011;72450;42.008;21.356;2023-09-12T14:00:12;8.60;;;3.85;;
82722;SDS011;72450;42.008;21.356;2023-09-12T14:02:38;8.27;;;3.38;;
82722;SDS011;72450;42.008;21.356;2023-09-12T14:05:04;8.05;;;3.20;;
82722;SDS011;72450;42.008;21.356;2023-09-12T14:07:30;5.82;;;3.65;;
82722;SDS011;72450;42.008;21.356;2023-09-12T14:12:22;7.18;;;3.42;;
82722;SDS011;72450;42.008;21.356;2023-09-12T14:14:48;6.55;;;3.10;;
82722;SDS011;72450;42.008;21.356;2023-09-12T14:17:15;6.93;;;3.38;;
82722;SDS011;72450;42.008;21.356;2023-09-12T14:19:41;10.02;;;3.20;;
82722;SDS011;72450;42.008;21.356;2023-09-12T14:24:33;13.30;;;3.72;;
82722;SDS011;72450;42.008;21.356;2023-09-12T14:26:59;6.13;;;2.97;;
82722;SDS011;72450;42.008;21.356;2023-09-12T14:31:53;7.22;;;3.65;;
82722;SDS011;72450;42.008;21.356;2023-09-12T14:34:25;6.38;;;3.40;;
82722;SDS011;72450;42.008;21.356;2023-09-12T14:36:57;10.50;;;3.38;;
82722;SDS011;72450;42.008;21.356;2023-09-12T14:39:23;6.15;;;3.28;;
82722;SDS011;72450;42.008;21.356;2023-09-12T14:41:49;6.07;;;3.30;;
82722;SDS011;72450;42.008;21.356;2023-09-12T14:44:19;9.15;;;3.50;;
82722;SDS011;72450;42.008;21.356;2023-09-12T14:46:45;6.70;;;3.63;;
82722;SDS011;72450;42.008;21.356;2023-09-12T14:49:11;6.25;;;3.33;;
82722;SDS011;72450;42.008;21.356;2023-09-12T14:54:04;7.18;;;3.67;;
82722;SDS011;72450;42.008;21.356;2023-09-12T14:56:30;6.40;;;3.78;;
82722;SDS011;72450;42.008;21.356;2023-09-12T14:58:56;10.88;;;3.35;;
82722;SDS011;72450;42.008;21.356;2023-09-12T15:03:49;6.82;;;3.28;;